Time;durP1;ratioP1;P1;durP2;ratioP2;P2;SDS_P1;SDS_P2;PMS_P1;PMS_P2;Temp;Humidity;BMP_temperature;BMP_pressure;BME280_temperature;BME280_humidity;BME280_pressure;Samples;Min_cycle;Max_cycle;Signal;HPM_P1;HPM_P2
2021/03/27 00:01:04;;;;;;;10.20;5.38;;;19.10;54.40;;;;;;4993168;28;20050;-72
2021/03/27 00:03:38;;;;;;;10.52;5.20;;;19.00;54.30;;;;;;4993140;28;20500;-74
2021/03/27 00:06:08;;;;;;;8.57;5.32;;;19.00;54.50;;;;;;4991861;28;20030;-73
2021/03/27 00:08:48;;;;;;;11.38;5.30;;;19.00;55.00;;;;;;4983831;28;20035;-73
2021/03/27 00:11:21;;;;;;;8.23;4.57;;;19.00;55.20;;;;;;4973662;28;20384;-73
2021/03/27 00:13:57;;;;;;;8.98;4.97;;;19.00;54.20;;;;;;4973779;28;20030;-73
2021/03/27 00:16:47;;;;;;;11.32;5.65;;;19.00;54.40;;;;;;4975848;28;20038;-73
2021/03/27 00:19:20;;;;;;;9.38;4.70;;;19.00;55.00;;;;;;4992481;28;20036;-72
2021/03/27 00:21:58;;;;;;;8.73;4.60;;;19.00;54.20;;;;;;4992716;28;20110;-73
2021/03/27 00:24:50;;;;;;;9.05;4.85;;;18.90;53.80;;;;;;4993080;28;20484;-72
2021/03/27 00:27:21;;;;;;;9.05;4.50;;;18.90;54.50;;;;;;4963620;28;20039;-72
2021/03/27 00:29:52;;;;;;;9.32;4.78;;;18.90;54.20;;;;;;4973110;28;20022;-73
2021/03/27 00:32:23;;;;;;;7.25;4.05;;;18.90;54.60;;;;;;4981024;28;20506;-72
2021/03/27 00:34:54;;;;;;;10.40;5.00;;;18.90;53.90;;;;;;4977925;28;20050;-72
2021/03/27 00:37:23;;;;;;;9.25;4.28;;;18.90;54.20;;;;;;4971889;28;20469;-73
2021/03/27 00:39:53;;;;;;;9.18;4.50;;;18.90;54.00;;;;;;4972981;28;20382;-73
2021/03/27 00:42:28;;;;;;;8.18;4.50;;;18.90;53.90;;;;;;4971481;28;20105;-73
2021/03/27 00:45:00;;;;;;;10.30;4.22;;;18.90;53.60;;;;;;4972386;28;20116;-73
2021/03/27 00:47:28;;;;;;;7.60;3.90;;;18.80;53.70;;;;;;4972996;28;20030;-73
2021/03/27 00:50:06;;;;;;;8.63;4.30;;;18.80;54.00;;;;;;4972623;28;20026;-73
2021/03/27 00:52:37;;;;;;;7.35;3.60;;;18.80;53.40;;;;;;4989523;28;20492;-73
2021/03/27 00:55:09;;;;;;;6.93;3.77;;;18.80;53.70;;;;;;4992301;28;20044;-73
2021/03/27 00:57:40;;;;;;;7.53;4.05;;;18.80;53.50;;;;;;4992399;28;20053;-74
2021/03/27 01:00:18;;;;;;;7.90;4.07;;;18.70;53.20;;;;;;4979754;28;20023;-73
2021/03/27 01:02:49;;;;;;;6.78;3.70;;;18.70;53.30;;;;;;4973783;28;20789;-74
2021/03/27 01:05:18;;;;;;;7.47;3.90;;;18.70;53.80;;;;;;4972644;28;20121;-73
2021/03/27 01:07:46;;;;;;;7.68;3.80;;;18.70;53.20;;;;;;4972768;28;20030;-73
2021/03/27 01:10:34;;;;;;;6.88;3.53;;;18.70;53.60;;;;;;4972523;28;20035;-73
2021/03/27 01:13:03;;;;;;;7.80;3.45;;;18.70;53.20;;;;;;4987412;28;20030;-74
2021/03/27 01:15:37;;;;;;;5.68;3.42;;;18.70;53.00;;;;;;4989003;28;20031;-73
2021/03/27 01:18:08;;;;;;;6.20;3.38;;;18.70;53.20;;;;;;4990357;28;20058;-74
2021/03/27 01:20:38;;;;;;;6.30;3.43;;;18.60;52.80;;;;;;4978222;28;20023;-73
2021/03/27 01:23:05;;;;;;;7.07;3.03;;;18.60;52.70;;;;;;4972289;28;20027;-74
2021/03/27 01:25:34;;;;;;;6.60;3.40;;;18.60;52.70;;;;;;4972938;28;20031;-73
2021/03/27 01:28:16;;;;;;;6.95;3.30;;;18.60;52.60;;;;;;4972784;28;20034;-73
2021/03/27 01:30:53;;;;;;;5.60;3.00;;;18.50;52.50;;;;;;4972872;28;20034;-73
2021/03/27 01:33:25;;;;;;;6.85;3.10;;;18.60;52.60;;;;;;4952166;29;20039;-73
2021/03/27 01:35:51;;;;;;;6.00;3.22;;;18.50;52.30;;;;;;4952189;29;20027;-73
2021/03/27 01:38:35;;;;;;;6.18;3.17;;;18.50;52.50;;;;;;4951800;29;20482;-74
2021/03/27 01:41:22;;;;;;;6.53;3.10;;;18.50;52.50;;;;;;4971740;28;20165;-73
2021/03/27 01:43:56;;;;;;;7.45;3.17;;;18.50;52.30;;;;;;4971310;28;20031;-73
2021/03/27 01:46:49;;;;;;;7.78;3.35;;;18.50;51.80;;;;;;4972587;28;20041;-73
2021/03/27 01:49:24;;;;;;;5.55;2.95;;;18.40;51.80;;;;;;4971889;28;20034;-74
2021/03/27 01:52:04;;;;;;;5.78;2.70;;;18.50;51.90;;;;;;4991705;28;20511;-73
2021/03/27 01:54:34;;;;;;;6.05;2.72;;;18.40;52.00;;;;;;4991828;28;20089;-74
2021/03/27 01:57:38;;;;;;;5.35;2.80;;;18.40;51.80;;;;;;4993264;28;20014;-73
2021/03/27 02:00:07;;;;;;;5.85;3.28;;;18.40;51.80;;;;;;4992148;28;20030;-73
2021/03/27 02:02:47;;;;;;;4.85;2.78;;;18.40;52.00;;;;;;4992262;28;20041;-73
2021/03/27 02:05:35;;;;;;;6.18;3.10;;;18.40;52.10;;;;;;4977059;28;20035;-73
2021/03/27 02:08:14;;;;;;;7.43;3.10;;;18.40;52.00;;;;;;4959101;28;20042;-71
2021/03/27 02:11:06;;;;;;;6.32;3.00;;;18.40;52.60;;;;;;4974661;28;20022;-73
2021/03/27 02:14:04;;;;;;;6.30;2.97;;;18.30;52.70;;;;;;4975641;28;20041;-73
2021/03/27 02:16:41;;;;;;;7.03;3.20;;;18.30;53.10;;;;;;4975625;28;20023;-74
2021/03/27 02:19:35;;;;;;;6.15;2.92;;;18.30;53.50;;;;;;4983694;28;20034;-73
2021/03/27 02:22:10;;;;;;;6.45;3.03;;;18.30;53.80;;;;;;4993602;28;20081;-73
2021/03/27 02:24:46;;;;;;;6.28;2.90;;;18.30;53.90;;;;;;4993594;28;20392;-73
2021/03/27 02:27:37;;;;;;;7.43;3.03;;;18.20;54.20;;;;;;4986199;28;20030;-73
2021/03/27 02:30:14;;;;;;;7.28;2.53;;;18.20;54.40;;;;;;4993287;28;20030;-73
2021/03/27 02:33:14;;;;;;;5.05;2.28;;;18.20;54.60;;;;;;4994763;28;20018;-72
2021/03/27 02:35:56;;;;;;;5.18;2.40;;;18.10;54.70;;;;;;4994503;28;20026;-72
2021/03/27 02:38:54;;;;;;;5.53;2.50;;;18.10;54.80;;;;;;4973644;28;20511;-73
2021/03/27 02:41:43;;;;;;;6.65;2.50;;;18.10;55.10;;;;;;4975105;28;20019;-72
2021/03/27 02:44:22;;;;;;;6.35;2.30;;;18.00;55.20;;;;;;4973864;28;20023;-73
2021/03/27 02:46:50;;;;;;;4.40;2.20;;;18.00;55.20;;;;;;4981198;28;20085;-73
2021/03/27 02:49:24;;;;;;;4.25;1.95;;;18.00;55.30;;;;;;4984367;28;20507;-73
2021/03/27 02:51:54;;;;;;;6.38;2.20;;;18.00;55.50;;;;;;4955599;28;20039;-72
2021/03/27 02:54:39;;;;;;;4.07;1.88;;;17.90;55.50;;;;;;4954235;29;20496;-73
2021/03/27 02:57:19;;;;;;;3.80;1.95;;;17.90;55.50;;;;;;4969483;28;20138;-73
2021/03/27 03:00:14;;;;;;;4.32;1.75;;;17.90;55.60;;;;;;4974521;28;20061;-73
2021/03/27 03:03:04;;;;;;;3.85;2.00;;;17.90;55.60;;;;;;4974610;28;20070;-73
2021/03/27 03:05:37;;;;;;;4.00;1.90;;;17.90;55.50;;;;;;4974675;28;20073;-73
2021/03/27 03:08:18;;;;;;;6.43;2.17;;;17.90;55.60;;;;;;4988122;28;20582;-72
2021/03/27 03:10:54;;;;;;;3.38;1.63;;;17.80;55.50;;;;;;4992820;28;20031;-72
2021/03/27 03:13:40;;;;;;;3.38;1.70;;;17.80;55.50;;;;;;4994011;28;20034;-72
2021/03/27 03:16:05;;;;;;;5.10;1.90;;;17.80;55.50;;;;;;4990108;28;20042;-73
2021/03/27 03:18:58;;;;;;;3.28;1.80;;;17.80;55.70;;;;;;4978332;28;20038;-73
2021/03/27 03:21:46;;;;;;;4.15;1.85;;;17.80;55.70;;;;;;4974226;28;20015;-73
2021/03/27 03:24:16;;;;;;;4.03;1.85;;;17.70;55.70;;;;;;4975769;28;20023;-73
2021/03/27 03:27:08;;;;;;;3.42;1.60;;;17.70;55.90;;;;;;4974578;28;20027;-74
2021/03/27 03:29:54;;;;;;;3.20;1.60;;;17.70;56.00;;;;;;4978435;28;20046;-73
2021/03/27 03:32:40;;;;;;;4.40;1.60;;;17.70;56.00;;;;;;4963075;28;20493;-72
2021/03/27 03:35:08;;;;;;;3.35;1.65;;;17.70;56.10;;;;;;4954785;28;20504;-73
2021/03/27 03:37:53;;;;;;;3.45;1.60;;;17.60;56.00;;;;;;4991267;28;20030;-73
2021/03/27 03:40:48;;;;;;;2.67;1.30;;;17.60;56.00;;;;;;4993175;28;20026;-74
2021/03/27 03:43:42;;;;;;;3.03;1.42;;;17.60;55.90;;;;;;4993235;28;20027;-73
2021/03/27 03:46:28;;;;;;;4.43;1.67;;;17.60;56.10;;;;;;4985851;28;20034;-72
2021/03/27 03:48:59;;;;;;;3.15;1.50;;;17.60;56.10;;;;;;4973398;28;20499;-72
2021/03/27 03:51:46;;;;;;;4.43;1.50;;;17.50;56.10;;;;;;4973468;28;20034;-73
2021/03/27 03:54:36;;;;;;;3.92;1.30;;;17.50;56.20;;;;;;4973608;28;20033;-73
2021/03/27 03:57:16;;;;;;;2.60;1.40;;;17.50;56.10;;;;;;4971799;28;20085;-73
2021/03/27 04:00:14;;;;;;;3.22;1.50;;;17.50;56.20;;;;;;4972060;28;20512;-73
2021/03/27 04:03:00;;;;;;;2.45;1.30;;;17.50;56.20;;;;;;4968653;28;20157;-73
2021/03/27 04:05:34;;;;;;;2.13;1.30;;;17.50;56.20;;;;;;4973924;28;20029;-73
2021/03/27 04:08:26;;;;;;;2.63;1.40;;;17.50;56.20;;;;;;4992709;28;20026;-73
2021/03/27 04:10:58;;;;;;;3.58;1.30;;;17.50;56.20;;;;;;4992712;28;20030;-72
2021/03/27 04:13:40;;;;;;;2.15;1.17;;;17.50;56.30;;;;;;4992439;28;20121;-73
2021/03/27 04:16:16;;;;;;;3.35;1.50;;;17.40;56.30;;;;;;4992068;28;20038;-73
2021/03/27 04:19:01;;;;;;;2.25;1.13;;;17.40;56.40;;;;;;4980708;28;20566;-72
2021/03/27 04:22:00;;;;;;;3.58;1.10;;;17.40;56.40;;;;;;4972881;28;20089;-73
2021/03/27 04:24:33;;;;;;;4.00;1.30;;;17.40;56.50;;;;;;4961203;28;20397;-73
2021/03/27 04:27:06;;;;;;;2.75;1.20;;;17.40;56.50;;;;;;4991268;28;20356;-73
2021/03/27 04:29:46;;;;;;;3.95;1.42;;;17.30;56.50;;;;;;4992147;28;20027;-73
2021/03/27 04:32:35;;;;;;;2.33;1.00;;;17.30;56.50;;;;;;4989987;28;20554;-73
2021/03/27 04:35:31;;;;;;;4.25;1.30;;;17.40;56.50;;;;;;4972889;28;20022;-73
2021/03/27 04:38:37;;;;;;;4.20;1.20;;;17.30;56.50;;;;;;4953504;29;20038;-72
2021/03/27 04:41:19;;;;;;;2.70;1.00;;;17.30;56.40;;;;;;4952249;29;20058;-72
2021/03/27 04:43:52;;;;;;;4.03;1.10;;;17.30;56.30;;;;;;4979318;28;20087;-72
2021/03/27 04:46:28;;;;;;;2.85;1.05;;;17.30;56.40;;;;;;4992069;28;20165;-74
2021/03/27 04:49:10;;;;;;;3.15;1.50;;;17.30;56.50;;;;;;4990078;28;20523;-74
2021/03/27 04:52:03;;;;;;;2.88;1.30;;;17.30;56.40;;;;;;4990840;28;20023;-73
2021/03/27 04:54:49;;;;;;;3.95;1.00;;;17.30;56.50;;;;;;4989208;28;20410;-73
2021/03/27 04:57:51;;;;;;;3.47;1.10;;;17.20;56.40;;;;;;4992263;28;20026;-72
2021/03/27 05:00:45;;;;;;;3.17;1.13;;;17.20;56.40;;;;;;4989519;28;20109;-71
2021/03/27 05:03:32;;;;;;;2.13;0.95;;;17.20;56.50;;;;;;4960899;28;20076;-72
2021/03/27 05:06:03;;;;;;;3.08;1.05;;;17.20;56.60;;;;;;4970973;28;20054;-72
2021/03/27 05:08:56;;;;;;;3.78;1.30;;;17.20;56.60;;;;;;4970901;28;20024;-72
2021/03/27 05:11:36;;;;;;;4.38;1.15;;;17.20;56.60;;;;;;4969160;28;20023;-72
2021/03/27 05:14:17;;;;;;;2.60;1.15;;;17.20;56.70;;;;;;4963073;28;20030;-72
2021/03/27 05:17:14;;;;;;;1.95;1.10;;;17.20;56.70;;;;;;4971876;28;20428;-71
2021/03/27 05:19:49;;;;;;;1.95;0.98;;;17.20;57.00;;;;;;4951891;28;20096;-72
2021/03/27 05:22:20;;;;;;;2.22;1.13;;;17.10;57.20;;;;;;4975119;28;20119;-72
2021/03/27 05:25:08;;;;;;;3.72;1.13;;;17.10;57.10;;;;;;4968332;28;20012;-72
2021/03/27 05:27:47;;;;;;;2.60;1.13;;;17.10;57.00;;;;;;4957002;28;20071;-71
2021/03/27 05:30:24;;;;;;;3.22;1.10;;;17.10;57.10;;;;;;4983083;28;20480;-71
2021/03/27 05:33:28;;;;;;;4.18;1.45;;;17.10;57.10;;;;;;4978942;28;20030;-72
2021/03/27 05:36:07;;;;;;;3.08;1.17;;;17.00;57.10;;;;;;4949147;28;20460;-71
2021/03/27 05:38:59;;;;;;;3.85;1.42;;;17.10;57.10;;;;;;4965781;28;20023;-72
2021/03/27 05:41:54;;;;;;;4.22;1.15;;;17.10;57.10;;;;;;4973888;28;20487;-71
2021/03/27 05:44:47;;;;;;;4.25;1.20;;;17.00;57.30;;;;;;4966023;28;20097;-72
2021/03/27 05:47:58;;;;;;;3.30;1.17;;;17.00;57.20;;;;;;4950594;29;20039;-72
2021/03/27 05:50:36;;;;;;;4.35;1.20;;;17.00;57.20;;;;;;4964763;28;20026;-72
2021/03/27 05:53:36;;;;;;;3.40;1.20;;;17.00;57.20;;;;;;4968405;28;20034;-72
2021/03/27 05:56:13;;;;;;;5.30;1.40;;;17.10;57.20;;;;;;4951158;29;20110;-72
2021/03/27 05:58:50;;;;;;;5.18;1.10;;;17.10;57.10;;;;;;4951201;29;20401;-72
2021/03/27 06:01:47;;;;;;;3.08;1.20;;;17.10;56.90;;;;;;4955049;28;20054;-72
2021/03/27 06:04:30;;;;;;;1.88;1.00;;;17.10;56.70;;;;;;4970596;28;20030;-72
2021/03/27 06:07:20;;;;;;;5.05;1.10;;;17.20;56.20;;;;;;4970969;28;20110;-72
2021/03/27 06:09:52;;;;;;;3.83;1.17;;;17.30;55.90;;;;;;4970387;28;20027;-72
2021/03/27 06:12:36;;;;;;;3.17;1.00;;;17.40;55.60;;;;;;4970604;28;20031;-72
2021/03/27 06:15:36;;;;;;;1.50;0.98;;;17.50;55.40;;;;;;4968625;28;20105;-72
2021/03/27 06:18:25;;;;;;;4.28;1.05;;;17.60;55.20;;;;;;4951048;28;20122;-73
2021/03/27 06:21:22;;;;;;;1.67;1.08;;;17.60;55.20;;;;;;4970157;28;20031;-72
2021/03/27 06:24:16;;;;;;;2.95;1.20;;;17.60;55.10;;;;;;4976655;28;20648;-71
2021/03/27 06:27:18;;;;;;;4.07;1.23;;;17.60;55.20;;;;;;4971983;28;20045;-72
2021/03/27 06:30:15;;;;;;;4.43;1.23;;;17.60;56.10;;;;;;4969070;28;20030;-72
2021/03/27 06:33:01;;;;;;;3.45;1.27;;;17.60;56.50;;;;;;4969498;28;20035;-71
2021/03/27 06:36:16;;;;;;;3.88;1.20;;;17.60;56.40;;;;;;4964845;28;20042;-73
2021/03/27 06:38:56;;;;;;;3.00;1.33;;;17.50;56.40;;;;;;4968928;28;20485;-72
2021/03/27 06:41:43;;;;;;;2.67;1.20;;;17.60;56.40;;;;;;4968033;28;20045;-72
2021/03/27 06:44:36;;;;;;;3.28;1.08;;;17.70;56.10;;;;;;4968697;28;20027;-73
2021/03/27 06:47:29;;;;;;;4.78;1.25;;;17.60;56.50;;;;;;4949507;29;20038;-72
2021/03/27 06:50:35;;;;;;;5.63;1.30;;;17.50;56.20;;;;;;4970123;28;20034;-71
2021/03/27 06:53:16;;;;;;;11.52;1.90;;;17.50;56.70;;;;;;4966740;28;20026;-71
2021/03/27 06:55:47;;;;;;;9.32;1.48;;;17.50;56.80;;;;;;4969518;28;20031;-71
2021/03/27 06:58:25;;;;;;;4.35;1.73;;;17.50;56.70;;;;;;4968119;28;20027;-71
2021/03/27 07:01:31;;;;;;;5.00;1.25;;;17.50;56.40;;;;;;4969692;28;20023;-71
2021/03/27 07:04:25;;;;;;;6.80;1.52;;;17.60;56.40;;;;;;4969669;28;20033;-70
2021/03/27 07:07:12;;;;;;;6.13;1.42;;;17.60;56.10;;;;;;4988335;28;20074;-74
2021/03/27 07:10:05;;;;;;;6.05;1.40;;;17.60;55.90;;;;;;4953156;28;20081;-73
2021/03/27 07:12:44;;;;;;;6.07;1.90;;;17.60;55.60;;;;;;4966033;28;20023;-70
2021/03/27 07:15:47;;;;;;;7.53;1.83;;;17.60;55.80;;;;;;4970204;28;20039;-73
2021/03/27 07:18:37;;;;;;;10.52;2.25;;;17.50;55.90;;;;;;4969020;28;20053;-73
2021/03/27 07:21:22;;;;;;;8.80;2.53;;;17.50;55.70;;;;;;4968758;28;20018;-73
2021/03/27 07:24:15;;;;;;;7.88;2.15;;;17.50;55.50;;;;;;4968460;28;20034;-73
2021/03/27 07:27:11;;;;;;;8.25;2.10;;;17.50;55.50;;;;;;4970487;28;20089;-73
2021/03/27 07:30:08;;;;;;;8.63;2.50;;;17.40;55.50;;;;;;4970598;28;20035;-73
2021/03/27 07:32:56;;;;;;;8.13;2.28;;;17.40;55.40;;;;;;4967961;28;20509;-74
2021/03/27 07:35:36;;;;;;;6.80;1.85;;;17.40;55.50;;;;;;4966894;28;20042;-74
2021/03/27 07:38:32;;;;;;;14.82;2.22;;;17.40;55.50;;;;;;4966167;28;20925;-71
2021/03/27 07:41:01;;;;;;;6.95;2.00;;;17.30;55.70;;;;;;4967592;28;20393;-72
2021/03/27 07:43:27;;;;;;;9.20;2.30;;;17.30;56.40;;;;;;4962942;28;20366;-72
2021/03/27 07:46:07;;;;;;;8.07;2.05;;;17.30;56.00;;;;;;4967274;28;20052;-72
2021/03/27 07:48:43;;;;;;;5.32;1.98;;;17.40;56.30;;;;;;4967503;28;20031;-71
2021/03/27 07:51:21;;;;;;;11.18;2.20;;;17.30;56.40;;;;;;4965035;28;20035;-74
2021/03/27 07:53:46;;;;;;;11.70;2.58;;;17.30;56.50;;;;;;4961345;28;20114;-73
2021/03/27 07:56:37;;;;;;;9.90;2.72;;;17.30;56.20;;;;;;4963601;28;20449;-73
2021/03/27 07:59:21;;;;;;;;;;;17.30;56.20;;;;;;4964359;28;20033;-72
2021/03/27 08:02:25;;;;;;;49.72;44.85;;;17.40;56.10;;;;;;4981030;28;19961;-72
2021/03/27 08:05:20;;;;;;;36.75;33.55;;;17.50;55.90;;;;;;4932021;28;20034;-73
2021/03/27 08:08:01;;;;;;;21.75;18.65;;;17.60;55.50;;;;;;4965383;28;20768;-72
2021/03/27 08:10:35;;;;;;;14.88;10.23;;;17.60;55.40;;;;;;4965869;28;20452;-73
2021/03/27 08:13:19;;;;;;;11.88;6.00;;;17.60;55.40;;;;;;4964722;28;20023;-73
2021/03/27 08:16:36;;;;;;;9.15;4.93;;;17.60;55.50;;;;;;4966025;28;20027;-74
2021/03/27 08:19:20;;;;;;;13.05;7.82;;;17.60;55.80;;;;;;4929622;28;20058;-68
2021/03/27 08:22:07;;;;;;;40.63;35.13;;;17.60;56.20;;;;;;4964581;28;20121;-72
2021/03/27 08:24:51;;;;;;;24.70;19.65;;;17.60;55.90;;;;;;4966007;28;20106;-72
2021/03/27 08:27:35;;;;;;;15.52;10.10;;;17.60;55.80;;;;;;4966281;28;20059;-72
2021/03/27 08:30:22;;;;;;;16.67;7.25;;;17.70;55.80;;;;;;4970767;28;20178;-71
2021/03/27 08:33:18;;;;;;;14.40;6.05;;;17.80;55.90;;;;;;4971486;28;20476;-74
2021/03/27 08:36:11;;;;;;;13.90;5.40;;;18.00;56.00;;;;;;4984679;28;20061;-72
2021/03/27 08:38:43;;;;;;;11.65;4.97;;;17.90;55.20;;;;;;4965669;28;20031;-71
2021/03/27 08:41:28;;;;;;;16.30;4.88;;;18.00;55.40;;;;;;4966716;28;20029;-72
2021/03/27 08:44:18;;;;;;;26.02;5.53;;;18.00;55.50;;;;;;4967377;28;20027;-72
2021/03/27 08:47:12;;;;;;;13.35;5.03;;;17.90;55.60;;;;;;4967389;28;20031;-70
2021/03/27 08:50:22;;;;;;;17.25;4.90;;;18.00;55.60;;;;;;4971495;28;20038;-72
2021/03/27 08:53:18;;;;;;;17.75;4.65;;;18.00;55.20;;;;;;4959465;28;20037;-73
2021/03/27 08:56:03;;;;;;;22.13;4.97;;;18.20;55.30;;;;;;4961865;28;20382;-72
2021/03/27 08:59:06;;;;;;;11.18;4.18;;;18.20;55.20;;;;;;4966143;28;20030;-72
2021/03/27 09:01:57;;;;;;;14.27;4.00;;;18.20;55.30;;;;;;4978549;28;20085;-72
2021/03/27 09:05:00;;;;;;;15.00;3.88;;;18.20;55.10;;;;;;4965669;28;20070;-71
2021/03/27 09:07:42;;;;;;;20.52;4.05;;;18.30;54.70;;;;;;4963145;28;20116;-71
2021/03/27 09:10:30;;;;;;;12.93;3.60;;;18.30;54.80;;;;;;4967285;28;20243;-71
2021/03/27 09:13:20;;;;;;;15.27;3.58;;;18.30;55.30;;;;;;4969074;28;20061;-71
2021/03/27 09:16:15;;;;;;;15.85;3.58;;;18.40;54.90;;;;;;4968352;28;20463;-72
2021/03/27 09:19:06;;;;;;;15.13;3.80;;;18.40;54.70;;;;;;4970417;28;20078;-72
2021/03/27 09:22:08;;;;;;;107.10;48.67;;;18.50;54.80;;;;;;4970095;28;20509;-71
2021/03/27 09:24:56;;;;;;;34.10;11.45;;;18.50;54.90;;;;;;4969571;28;20070;-72
2021/03/27 09:27:59;;;;;;;22.13;7.38;;;18.40;55.00;;;;;;4970375;28;20034;-72
2021/03/27 09:30:52;;;;;;;36.72;18.08;;;18.40;55.00;;;;;;4971716;28;20054;-72
2021/03/27 09:33:29;;;;;;;24.95;9.82;;;18.50;54.80;;;;;;4971284;28;20035;-72
2021/03/27 09:36:16;;;;;;;24.00;7.80;;;18.60;54.60;;;;;;4971379;28;20126;-72
2021/03/27 09:39:01;;;;;;;21.25;7.65;;;18.80;54.10;;;;;;4976579;28;20022;-71
2021/03/27 09:41:57;;;;;;;20.77;7.15;;;19.00;53.40;;;;;;4984427;28;20475;-71
2021/03/27 09:44:38;;;;;;;17.98;6.35;;;18.90;53.50;;;;;;4972514;28;20042;-71
2021/03/27 09:47:22;;;;;;;15.00;5.75;;;18.90;53.60;;;;;;4970128;28;20077;-74
2021/03/27 09:50:16;;;;;;;16.77;6.00;;;19.20;52.90;;;;;;4968059;28;20567;-74
2021/03/27 09:53:04;;;;;;;15.32;5.80;;;20.10;50.30;;;;;;4970444;28;20802;-75
2021/03/27 09:55:39;;;;;;;18.02;6.28;;;20.40;49.30;;;;;;4974830;28;20396;-72
2021/03/27 09:58:20;;;;;;;424.52;266.50;;;19.90;50.90;;;;;;4968574;28;20026;-72
2021/03/27 10:00:58;;;;;;;82.40;48.05;;;19.60;51.80;;;;;;4968131;28;20385;-72
2021/03/27 10:03:39;;;;;;;199.68;117.72;;;19.30;52.40;;;;;;4969734;28;20113;-72
2021/03/27 10:06:34;;;;;;;180.70;108.07;;;19.70;51.80;;;;;;4961353;28;20023;-75
2021/03/27 10:09:26;;;;;;;190.43;118.07;;;19.50;52.20;;;;;;4969494;28;20484;-71
2021/03/27 10:12:27;;;;;;;174.45;108.10;;;19.10;53.60;;;;;;4968628;28;20489;-73
2021/03/27 10:14:58;;;;;;;146.55;92.10;;;19.40;52.60;;;;;;4929052;29;20130;-72
2021/03/27 10:17:35;;;;;;;142.63;88.65;;;19.70;51.70;;;;;;4956829;28;20118;-75
2021/03/27 10:20:24;;;;;;;134.68;83.75;;;19.70;51.40;;;;;;4969484;28;20046;-74
2021/03/27 10:23:16;;;;;;;119.97;75.15;;;20.00;51.20;;;;;;4969356;28;20533;-75
2021/03/27 10:26:14;;;;;;;118.30;76.55;;;21.40;47.60;;;;;;4967973;28;20041;-72
2021/03/27 10:29:02;;;;;;;107.03;67.95;;;20.50;48.70;;;;;;4942551;28;20035;-74
2021/03/27 10:31:47;;;;;;;101.20;63.90;;;20.00;50.20;;;;;;4967887;28;20496;-73
2021/03/27 10:34:23;;;;;;;95.22;59.45;;;20.50;49.70;;;;;;4967819;28;20770;-73
2021/03/27 10:37:00;;;;;;;92.65;59.88;;;20.60;48.80;;;;;;4966138;28;20086;-73
2021/03/27 10:39:51;;;;;;;91.88;60.08;;;20.80;48.90;;;;;;4967386;28;20141;-73
2021/03/27 10:42:31;;;;;;;84.60;54.15;;;21.20;46.80;;;;;;4966430;28;20027;-73
2021/03/27 10:45:26;;;;;;;87.78;57.72;;;21.10;46.40;;;;;;4967947;28;20027;-74
2021/03/27 10:48:04;;;;;;;84.20;53.83;;;21.20;46.20;;;;;;4966450;28;20065;-73
2021/03/27 10:50:59;;;;;;;79.05;51.65;;;21.60;46.10;;;;;;4966538;28;20058;-67
2021/03/27 10:53:46;;;;;;;91.20;57.00;;;21.40;45.20;;;;;;4964548;28;20058;-69
2021/03/27 10:56:45;;;;;;;94.60;53.05;;;20.30;47.80;;;;;;4966888;28;20057;-73
2021/03/27 10:59:17;;;;;;;94.03;50.70;;;19.90;49.30;;;;;;4967848;28;20125;-73
2021/03/27 11:02:03;;;;;;;;;;;19.80;49.90;;;;;;4967850;28;20266;-72
2021/03/27 11:05:06;;;;;;;78.15;48.13;;;19.70;50.90;;;;;;4968692;28;19910;-72
2021/03/27 11:07:51;;;;;;;64.03;41.25;;;20.00;50.40;;;;;;4965055;28;20037;-72
2021/03/27 11:10:40;;;;;;;68.75;43.00;;;20.00;50.00;;;;;;4968092;28;20022;-72
2021/03/27 11:13:51;;;;;;;65.83;42.30;;;19.90;50.70;;;;;;4967387;28;20023;-72
2021/03/27 11:16:41;;;;;;;61.80;37.05;;;20.20;49.80;;;;;;4960143;28;20058;-71
2021/03/27 11:19:33;;;;;;;46.00;30.42;;;20.40;50.50;;;;;;4967868;28;20015;-72
2021/03/27 11:22:25;;;;;;;43.22;26.38;;;20.60;48.50;;;;;;4966052;28;20023;-73
2021/03/27 11:25:30;;;;;;;41.40;26.25;;;20.40;49.30;;;;;;4966658;28;20654;-73
2021/03/27 11:28:13;;;;;;;42.17;26.73;;;20.20;49.10;;;;;;4967195;28;20093;-72
2021/03/27 11:31:12;;;;;;;51.75;30.63;;;20.20;48.90;;;;;;4967125;28;20049;-72
2021/03/27 11:33:53;;;;;;;46.28;29.77;;;19.80;50.50;;;;;;4967872;28;20489;-72
2021/03/27 11:36:24;;;;;;;38.88;24.05;;;19.70;51.60;;;;;;4965191;28;20027;-72
2021/03/27 11:39:01;;;;;;;50.17;25.55;;;19.60;51.40;;;;;;4966124;28;20026;-72
2021/03/27 11:41:37;;;;;;;55.33;25.05;;;19.60;52.90;;;;;;4966278;28;20119;-72
2021/03/27 11:44:23;;;;;;;43.80;21.83;;;19.70;52.90;;;;;;4965682;28;20029;-71
2021/03/27 11:47:04;;;;;;;40.72;22.60;;;19.80;52.40;;;;;;4966966;28;20078;-71
2021/03/27 11:49:38;;;;;;;36.78;19.95;;;19.90;52.40;;;;;;4965654;28;20039;-72
2021/03/27 11:52:42;;;;;;;35.80;18.77;;;19.90;52.50;;;;;;4973303;28;20062;-73
2021/03/27 11:55:33;;;;;;;32.38;18.67;;;20.00;52.40;;;;;;4967205;28;20097;-72
2021/03/27 11:58:03;;;;;;;27.35;16.05;;;20.50;51.60;;;;;;4968338;28;20046;-73
2021/03/27 12:01:02;;;;;;;33.33;16.93;;;21.00;50.20;;;;;;4988541;23;20099;-70
2021/03/27 12:03:38;;;;;;;29.63;15.88;;;21.60;49.50;;;;;;4985672;28;20329;-70
2021/03/27 12:06:21;;;;;;;28.02;13.85;;;22.90;46.00;;;;;;4986131;28;20014;-68
2021/03/27 12:09:05;;;;;;;29.42;14.10;;;23.40;44.30;;;;;;4992487;28;20041;-70
2021/03/27 12:11:52;;;;;;;24.52;13.73;;;23.80;43.80;;;;;;4992792;28;20026;-70
2021/03/27 12:14:56;;;;;;;25.02;12.57;;;24.30;42.90;;;;;;4990667;28;20023;-70
2021/03/27 12:17:31;;;;;;;21.98;12.25;;;24.60;42.10;;;;;;4990361;28;20156;-69
2021/03/27 12:20:02;;;;;;;18.45;11.48;;;24.60;41.60;;;;;;4982486;28;20054;-71
2021/03/27 12:22:43;;;;;;;20.75;11.18;;;24.60;41.40;;;;;;4973608;28;20441;-69
2021/03/27 12:25:12;;;;;;;20.00;11.10;;;24.70;41.60;;;;;;4973322;28;20030;-69
2021/03/27 12:27:43;;;;;;;18.83;10.85;;;24.50;41.30;;;;;;4984767;28;20053;-71
2021/03/27 12:30:39;;;;;;;16.23;9.43;;;23.50;42.60;;;;;;4985946;28;20074;-69
2021/03/27 12:33:11;;;;;;;16.85;9.02;;;22.40;44.60;;;;;;4971943;28;20480;-70
2021/03/27 12:35:57;;;;;;;15.90;9.23;;;21.60;46.90;;;;;;4973839;28;20481;-70
2021/03/27 12:39:00;;;;;;;15.57;8.65;;;21.20;48.40;;;;;;4971605;28;20137;-70
2021/03/27 12:41:31;;;;;;;15.85;8.20;;;20.90;49.00;;;;;;5022442;28;20030;-71
2021/03/27 12:44:01;;;;;;;14.30;7.82;;;20.80;49.50;;;;;;4989844;28;20023;-70
2021/03/27 12:46:33;;;;;;;13.68;7.60;;;21.10;49.40;;;;;;4992665;28;20077;-70
2021/03/27 12:49:10;;;;;;;;;;;21.70;48.40;;;;;;4973173;28;20027;-69
2021/03/27 12:52:10;;;;;;;13.02;7.20;;;22.00;47.30;;;;;;4973068;28;20375;-71
2021/03/27 12:54:42;;;;;;;13.77;7.32;;;22.00;47.00;;;;;;4973102;28;20027;-72
2021/03/27 12:57:38;;;;;;;13.18;6.60;;;22.30;46.50;;;;;;4983828;28;20054;-70
2021/03/27 13:00:41;;;;;;;13.10;6.13;;;21.90;47.00;;;;;;4990849;28;20023;-70
2021/03/27 13:03:44;;;;;;;12.88;6.43;;;21.40;47.80;;;;;;4990949;28;20110;-71
2021/03/27 13:06:16;;;;;;;17.38;6.68;;;21.20;48.50;;;;;;4990074;28;20022;-73
2021/03/27 13:08:46;;;;;;;;;;;21.00;49.20;;;;;;4991446;28;20026;-72
2021/03/27 13:11:31;;;;;;;12.85;5.47;;;21.00;49.20;;;;;;4977747;28;19910;-71
2021/03/27 13:14:35;;;;;;;24.88;6.60;;;20.90;49.50;;;;;;4983660;28;20027;-73
2021/03/27 13:17:13;;;;;;;18.77;5.95;;;20.70;49.70;;;;;;4988870;28;20034;-71
2021/03/27 13:19:47;;;;;;;12.15;5.53;;;20.70;50.00;;;;;;4989421;28;20026;-72
2021/03/27 13:22:36;;;;;;;18.70;5.47;;;20.60;49.70;;;;;;4983155;28;20081;-70
2021/03/27 13:25:20;;;;;;;21.38;5.43;;;20.50;50.00;;;;;;4971086;28;20019;-70
2021/03/27 13:27:56;;;;;;;19.90;5.07;;;20.30;51.00;;;;;;4990605;28;20031;-67
2021/03/27 13:30:57;;;;;;;15.55;4.95;;;20.20;50.50;;;;;;4989560;28;20470;-69
2021/03/27 13:33:49;;;;;;;12.88;5.47;;;20.10;50.80;;;;;;4989576;28;20190;-68
2021/03/27 13:36:30;;;;;;;11.93;4.78;;;20.00;51.30;;;;;;4971628;28;20396;-72
2021/03/27 13:39:14;;;;;;;12.55;4.93;;;19.90;51.80;;;;;;4981631;28;20025;-67
2021/03/27 13:42:01;;;;;;;13.13;5.18;;;19.80;52.00;;;;;;4989332;28;20030;-69
2021/03/27 13:44:42;;;;;;;11.02;4.57;;;19.80;52.40;;;;;;4989916;28;20022;-68
2021/03/27 13:47:14;;;;;;;13.68;4.85;;;19.70;52.50;;;;;;4971420;28;20026;-71
2021/03/27 13:50:14;;;;;;;14.98;4.45;;;19.60;52.80;;;;;;4969519;28;20061;-67
2021/03/27 13:53:05;;;;;;;13.43;4.47;;;19.60;52.70;;;;;;4957945;28;20095;-70
2021/03/27 13:55:39;;;;;;;10.88;4.47;;;19.70;52.80;;;;;;4975024;28;20526;-69
2021/03/27 13:58:23;;;;;;;16.77;5.18;;;19.80;52.60;;;;;;4974736;28;20046;-72
2021/03/27 14:00:58;;;;;;;13.13;4.65;;;19.80;52.40;;;;;;4974629;28;20023;-67
2021/03/27 14:03:42;;;;;;;15.45;4.78;;;19.70;53.10;;;;;;4990327;28;20062;-67
2021/03/27 14:06:35;;;;;;;9.82;3.92;;;19.60;52.80;;;;;;4974969;28;20031;-69
2021/03/27 14:09:07;;;;;;;11.63;3.90;;;19.50;52.90;;;;;;4986238;28;20026;-68